Time;durP1;ratioP1;P1;durP2;ratioP2;P2;SDS_P1;SDS_P2;PMS_P1;PMS_P2;Temp;Humidity;BMP_temperature;BMP_pressure;BME280_temperature;BME280_humidity;BME280_pressure;Samples;Min_cycle;Max_cycle;Signal;HPM_P1;HPM_P2
2023/07/05 00:01:46;;;;;;;17.02;10.57;;;;;;;;;;5093390;28;20039;-64
2023/07/05 00:04:12;;;;;;;20.70;10.30;;;;;;;;;;5094627;28;20475;-64
2023/07/05 00:06:38;;;;;;;19.25;10.68;;;;;;;;;;5094639;28;20063;-65
2023/07/05 00:09:04;;;;;;;16.40;10.98;;;;;;;;;;5094615;28;20054;-64
2023/07/05 00:11:30;;;;;;;22.20;11.32;;;;;;;;;;5094381;28;20499;-64
2023/07/05 00:13:56;;;;;;;15.75;10.68;;;;;;;;;;5094388;28;20107;-64
2023/07/05 00:16:22;;;;;;;17.77;11.32;;;;;;;;;;5094322;28;20040;-64
2023/07/05 00:18:48;;;;;;;17.08;10.77;;;;;;;;;;5094031;28;20036;-64
2023/07/05 00:21:14;;;;;;;15.65;10.65;;;;;;;;;;5094092;28;20020;-64
2023/07/05 00:23:44;;;;;;;18.77;10.90;;;;;;;;;;5094216;28;20381;-64
2023/07/05 00:26:10;;;;;;;17.42;11.10;;;;;;;;;;5094228;28;20028;-64
2023/07/05 00:28:36;;;;;;;17.05;11.05;;;;;;;;;;5094035;28;20478;-64
2023/07/05 00:31:03;;;;;;;21.98;10.77;;;;;;;;;;5093599;28;20035;-65
2023/07/05 00:33:31;;;;;;;19.40;11.25;;;;;;;;;;5093992;28;20024;-64
2023/07/05 00:35:57;;;;;;;18.50;10.95;;;;;;;;;;5093791;28;20031;-64
2023/07/05 00:38:23;;;;;;;16.65;10.45;;;;;;;;;;5093643;28;20032;-65
2023/07/05 00:40:49;;;;;;;19.50;10.93;;;;;;;;;;5093717;28;20485;-64
2023/07/05 00:43:15;;;;;;;20.83;11.57;;;;;;;;;;5093701;28;20032;-64
2023/07/05 00:45:43;;;;;;;18.42;11.30;;;;;;;;;;5093747;28;20034;-64
2023/07/05 00:48:13;;;;;;;15.38;10.75;;;;;;;;;;5093709;28;20474;-64
2023/07/05 00:50:40;;;;;;;19.63;10.95;;;;;;;;;;5093827;28;20031;-65
2023/07/05 00:53:07;;;;;;;16.38;10.63;;;;;;;;;;5093630;28;20032;-64
2023/07/05 00:55:33;;;;;;;17.85;11.07;;;;;;;;;;5093688;28;20394;-64
2023/07/05 00:57:59;;;;;;;16.15;10.85;;;;;;;;;;5093419;28;20600;-65
2023/07/05 01:00:25;;;;;;;16.98;10.88;;;;;;;;;;5093575;28;20055;-65
2023/07/05 01:02:55;;;;;;;18.88;11.95;;;;;;;;;;5093465;28;20128;-64
2023/07/05 01:05:21;;;;;;;17.75;10.82;;;;;;;;;;5093573;28;20501;-64
2023/07/05 01:07:47;;;;;;;18.40;11.07;;;;;;;;;;5093402;28;20028;-64
2023/07/05 01:10:17;;;;;;;23.70;12.02;;;;;;;;;;5093348;28;20023;-65
2023/07/05 01:12:50;;;;;;;17.55;10.98;;;;;;;;;;5093294;28;20032;-65
2023/07/05 01:15:17;;;;;;;20.60;11.00;;;;;;;;;;5093378;28;20085;-65
2023/07/05 01:17:50;;;;;;;19.17;11.80;;;;;;;;;;5092872;28;20044;-65
2023/07/05 01:20:37;;;;;;;20.80;10.52;;;;;;;;;;5093316;28;20520;-65
2023/07/05 01:23:24;;;;;;;17.38;10.75;;;;;;;;;;5093204;28;20473;-65
2023/07/05 01:26:10;;;;;;;15.32;9.98;;;;;;;;;;5093174;28;20442;-65
2023/07/05 01:28:54;;;;;;;14.32;9.43;;;;;;;;;;5093189;28;20020;-65
2023/07/05 01:31:39;;;;;;;11.90;8.13;;;;;;;;;;5093437;28;20403;-65
2023/07/05 01:34:11;;;;;;;13.95;8.38;;;;;;;;;;5093042;28;20557;-65
2023/07/05 01:36:38;;;;;;;13.95;8.00;;;;;;;;;;5093383;28;20047;-65
2023/07/05 01:39:04;;;;;;;18.70;7.57;;;;;;;;;;5092951;28;20038;-65
2023/07/05 01:41:30;;;;;;;16.63;8.10;;;;;;;;;;5093357;28;20031;-65
2023/07/05 01:43:56;;;;;;;13.95;7.25;;;;;;;;;;5092781;28;20024;-64
2023/07/05 01:46:25;;;;;;;13.95;7.88;;;;;;;;;;5093021;28;20034;-64
2023/07/05 01:49:11;;;;;;;13.32;7.43;;;;;;;;;;5093101;28;20078;-65
2023/07/05 01:51:48;;;;;;;12.43;6.88;;;;;;;;;;5093087;28;20045;-65
2023/07/05 01:54:34;;;;;;;11.80;8.15;;;;;;;;;;5093240;28;20032;-65
2023/07/05 01:57:05;;;;;;;13.60;7.47;;;;;;;;;;5092948;28;20391;-65
2023/07/05 01:59:36;;;;;;;12.95;7.25;;;;;;;;;;5092920;28;20027;-65
2023/07/05 02:02:04;;;;;;;10.77;6.88;;;;;;;;;;5092852;28;20039;-65
2023/07/05 02:04:35;;;;;;;13.07;7.25;;;;;;;;;;5093032;28;20397;-65
2023/07/05 02:07:01;;;;;;;11.15;7.60;;;;;;;;;;5092889;28;20024;-65
2023/07/05 02:09:27;;;;;;;10.32;6.75;;;;;;;;;;5092773;28;20052;-65
2023/07/05 02:11:53;;;;;;;11.95;7.00;;;;;;;;;;5092990;28;20117;-66
2023/07/05 02:14:20;;;;;;;10.68;7.10;;;;;;;;;;5092920;28;20024;-65
2023/07/05 02:16:46;;;;;;;11.98;6.95;;;;;;;;;;5092244;28;20101;-65
2023/07/05 02:19:12;;;;;;;11.38;7.28;;;;;;;;;;5092690;28;20067;-65
2023/07/05 02:21:38;;;;;;;13.55;6.88;;;;;;;;;;5092541;28;20441;-65
2023/07/05 02:24:04;;;;;;;11.10;6.90;;;;;;;;;;5092624;28;20030;-65
2023/07/05 02:26:33;;;;;;;9.80;7.30;;;;;;;;;;5096029;28;20020;-65
2023/07/05 02:28:59;;;;;;;11.73;7.13;;;;;;;;;;5096318;28;20038;-65
2023/07/05 02:31:25;;;;;;;11.48;7.53;;;;;;;;;;5096419;28;20032;-64
2023/07/05 02:33:50;;;;;;;11.65;8.07;;;;;;;;;;5096241;28;20031;-65
2023/07/05 02:36:17;;;;;;;14.38;7.05;;;;;;;;;;5096230;28;20115;-65
2023/07/05 02:38:43;;;;;;;14.38;7.70;;;;;;;;;;5095914;28;20110;-65
2023/07/05 02:41:10;;;;;;;15.50;7.85;;;;;;;;;;5096396;28;20058;-65
2023/07/05 02:43:36;;;;;;;17.67;8.02;;;;;;;;;;5095893;28;20539;-65
2023/07/05 02:46:02;;;;;;;10.63;7.55;;;;;;;;;;5096210;28;20414;-64
2023/07/05 02:48:28;;;;;;;12.23;7.10;;;;;;;;;;5096134;28;20085;-65
2023/07/05 02:50:54;;;;;;;8.65;6.50;;;;;;;;;;5096052;28;20119;-65
2023/07/05 02:53:20;;;;;;;9.85;6.68;;;;;;;;;;5096068;28;20032;-65
2023/07/05 02:55:46;;;;;;;10.02;6.18;;;;;;;;;;5095947;28;20020;-65
2023/07/05 02:58:12;;;;;;;10.95;6.95;;;;;;;;;;5095512;28;20028;-64
2023/07/05 03:00:38;;;;;;;8.65;6.32;;;;;;;;;;5095511;28;20031;-65
2023/07/05 03:03:04;;;;;;;8.98;6.50;;;;;;;;;;5095617;28;20115;-65
2023/07/05 03:05:30;;;;;;;8.50;6.30;;;;;;;;;;5095585;28;20081;-64
2023/07/05 03:07:56;;;;;;;10.05;6.45;;;;;;;;;;5095733;28;20024;-65
2023/07/05 03:10:21;;;;;;;8.68;6.10;;;;;;;;;;5095654;28;20036;-65
2023/07/05 03:12:47;;;;;;;9.27;6.03;;;;;;;;;;5095696;28;20385;-64
2023/07/05 03:15:13;;;;;;;7.38;5.53;;;;;;;;;;5095303;28;20052;-65
2023/07/05 03:17:39;;;;;;;8.82;5.50;;;;;;;;;;5095249;28;20044;-64
2023/07/05 03:20:06;;;;;;;9.52;5.28;;;;;;;;;;5095089;28;20403;-65
2023/07/05 03:22:32;;;;;;;8.35;4.80;;;;;;;;;;5095444;28;20088;-65
2023/07/05 03:24:58;;;;;;;7.05;5.32;;;;;;;;;;5095316;28;20077;-65
2023/07/05 03:27:24;;;;;;;6.53;4.65;;;;;;;;;;5095362;28;20036;-65
2023/07/05 03:29:51;;;;;;;8.15;4.75;;;;;;;;;;5095357;28;20036;-66
2023/07/05 03:32:17;;;;;;;6.97;4.60;;;;;;;;;;5095192;28;20024;-65
2023/07/05 03:34:43;;;;;;;6.85;4.80;;;;;;;;;;5095313;28;20051;-65
2023/07/05 03:37:09;;;;;;;10.77;5.00;;;;;;;;;;5095268;28;20412;-65
2023/07/05 03:39:35;;;;;;;6.40;4.68;;;;;;;;;;5095138;28;20024;-64
2023/07/05 03:42:02;;;;;;;6.38;4.70;;;;;;;;;;5095032;28;20028;-65
2023/07/05 03:44:28;;;;;;;6.78;4.43;;;;;;;;;;5095052;28;20055;-65
2023/07/05 03:46:54;;;;;;;6.15;4.63;;;;;;;;;;5094661;28;20025;-64
2023/07/05 03:49:20;;;;;;;8.63;4.78;;;;;;;;;;5094941;28;20064;-64
2023/07/05 03:51:46;;;;;;;9.40;4.93;;;;;;;;;;5094898;28;20036;-65
2023/07/05 03:54:12;;;;;;;5.43;4.43;;;;;;;;;;5093472;28;20401;-65
2023/07/05 03:56:38;;;;;;;7.82;4.60;;;;;;;;;;5094929;28;20044;-65
2023/07/05 03:59:04;;;;;;;6.60;5.18;;;;;;;;;;5094393;28;20497;-65
2023/07/05 04:01:31;;;;;;;10.02;5.68;;;;;;;;;;5094279;28;20040;-65
2023/07/05 04:04:00;;;;;;;6.07;5.10;;;;;;;;;;5094642;28;20447;-65
2023/07/05 04:06:28;;;;;;;8.43;4.65;;;;;;;;;;5094441;28;20028;-64
2023/07/05 04:08:54;;;;;;;5.95;4.22;;;;;;;;;;5094332;28;20039;-65
2023/07/05 04:11:21;;;;;;;5.85;4.80;;;;;;;;;;5094439;28;20039;-65
2023/07/05 04:13:48;;;;;;;4.72;4.28;;;;;;;;;;5094298;28;20043;-64
2023/07/05 04:16:17;;;;;;;6.13;4.78;;;;;;;;;;5094208;28;20024;-65
2023/07/05 04:18:43;;;;;;;7.65;4.55;;;;;;;;;;5093816;28;20479;-65
2023/07/05 04:21:10;;;;;;;5.38;4.78;;;;;;;;;;5094184;28;20538;-65
2023/07/05 04:23:36;;;;;;;5.88;4.57;;;;;;;;;;5093799;28;20488;-64
2023/07/05 04:26:04;;;;;;;5.97;4.18;;;;;;;;;;5093988;28;20024;-64
2023/07/05 04:28:30;;;;;;;4.50;4.03;;;;;;;;;;5093978;28;20028;-64
2023/07/05 04:30:57;;;;;;;6.57;3.92;;;;;;;;;;5094135;28;20028;-64
2023/07/05 04:33:23;;;;;;;3.88;3.17;;;;;;;;;;5093991;28;20036;-65
2023/07/05 04:35:49;;;;;;;5.13;3.15;;;;;;;;;;5093896;28;20028;-65
2023/07/05 04:38:15;;;;;;;4.95;3.45;;;;;;;;;;5093919;28;20024;-65
2023/07/05 04:40:42;;;;;;;6.13;3.88;;;;;;;;;;5093900;28;20039;-65
2023/07/05 04:43:08;;;;;;;6.78;4.10;;;;;;;;;;5093816;28;20478;-65
2023/07/05 04:45:34;;;;;;;6.10;3.40;;;;;;;;;;5093796;28;20023;-64
2023/07/05 04:48:00;;;;;;;3.72;2.90;;;;;;;;;;5093291;28;20028;-64
2023/07/05 04:50:26;;;;;;;5.85;2.65;;;;;;;;;;5093582;28;20393;-64
2023/07/05 04:52:52;;;;;;;4.65;2.90;;;;;;;;;;5093841;28;20030;-64
2023/07/05 04:55:18;;;;;;;4.57;2.50;;;;;;;;;;5093578;28;20104;-65
2023/07/05 04:57:44;;;;;;;3.95;2.80;;;;;;;;;;5093560;28;20366;-64
2023/07/05 05:00:11;;;;;;;7.47;3.00;;;;;;;;;;5093608;28;20400;-64
2023/07/05 05:02:37;;;;;;;6.25;2.63;;;;;;;;;;5093400;28;20054;-64
2023/07/05 05:05:03;;;;;;;4.85;3.13;;;;;;;;;;5093414;28;20031;-64
2023/07/05 05:07:29;;;;;;;6.68;3.28;;;;;;;;;;5092235;28;20038;-64
2023/07/05 05:09:56;;;;;;;6.30;3.00;;;;;;;;;;5093587;28;20036;-64
2023/07/05 05:12:22;;;;;;;5.70;2.75;;;;;;;;;;5093555;28;20050;-64
2023/07/05 05:14:48;;;;;;;6.88;2.67;;;;;;;;;;5093368;28;20032;-65
2023/07/05 05:17:14;;;;;;;4.53;2.50;;;;;;;;;;5093158;28;20090;-64
2023/07/05 05:19:40;;;;;;;4.18;2.85;;;;;;;;;;5093447;28;20023;-63
2023/07/05 05:22:06;;;;;;;5.68;2.78;;;;;;;;;;5093198;28;20035;-63
2023/07/05 05:24:32;;;;;;;3.80;2.33;;;;;;;;;;5093214;28;20123;-64
2023/07/05 05:26:58;;;;;;;3.58;2.53;;;;;;;;;;5093403;28;20513;-64
2023/07/05 05:29:24;;;;;;;3.95;2.90;;;;;;;;;;5089833;28;20067;-64
2023/07/05 05:31:50;;;;;;;4.63;2.72;;;;;;;;;;5111042;28;20023;-64
2023/07/05 05:34:16;;;;;;;5.68;2.97;;;;;;;;;;5113151;28;20027;-63
2023/07/05 05:36:42;;;;;;;5.72;3.58;;;;;;;;;;5113734;28;20451;-63
2023/07/05 05:39:08;;;;;;;3.53;2.58;;;;;;;;;;5113309;28;20028;-63
2023/07/05 05:41:34;;;;;;;5.85;2.90;;;15.60;1.00;;;;;;5113591;28;20381;-63
2023/07/05 05:43:59;;;;;;;5.60;2.88;;;15.40;1.00;;;;;;5113415;28;20030;-64
2023/07/05 05:46:25;;;;;;;7.78;3.30;;;15.70;1.00;;;;;;5113203;28;20051;-64
2023/07/05 05:48:51;;;;;;;4.95;2.90;;;16.40;1.00;;;;;;5112241;28;20076;-64
2023/07/05 05:51:16;;;;;;;3.75;2.78;;;16.70;1.00;;;;;;5110560;28;20449;-64
2023/07/05 05:53:42;;;;;;;6.20;3.88;;;17.00;1.00;;;;;;5092202;28;20064;-64
2023/07/05 05:56:07;;;;;;;7.13;3.85;;;17.50;99.90;;;;;;5092116;28;20056;-64
2023/07/05 05:58:33;;;;;;;4.03;2.88;;;17.70;99.90;;;;;;5091705;28;20071;-64
2023/07/05 06:01:01;;;;;;;5.22;3.20;;;17.70;99.90;;;;;;5095373;28;20405;-64
2023/07/05 06:03:27;;;;;;;6.00;3.47;;;17.80;99.90;;;;;;5096750;28;20024;-64
2023/07/05 06:05:54;;;;;;;6.65;3.40;;;17.80;99.90;;;;;;5096959;28;20043;-64
2023/07/05 06:08:20;;;;;;;6.47;3.55;;;17.90;99.90;;;;;;5096772;28;20035;-64
2023/07/05 06:10:46;;;;;;;6.25;3.83;;;17.90;99.90;;;;;;5096174;28;20027;-64
2023/07/05 06:13:12;;;;;;;8.50;4.30;;;18.10;1.00;;;;;;5096163;28;20035;-65
2023/07/05 06:15:38;;;;;;;7.45;3.38;;;18.00;99.90;;;;;;5096436;28;20057;-63
2023/07/05 06:18:04;;;;;;;4.65;3.13;;;;;;;;;;5095867;28;20124;-64
2023/07/05 06:20:33;;;;;;;5.45;3.63;;;;;;;;;;5099049;28;20032;-64
2023/07/05 06:22:59;;;;;;;7.97;3.85;;;;;;;;;;5105388;28;20027;-64
2023/07/05 06:25:25;;;;;;;4.95;3.35;;;;;;;;;;5094621;28;20052;-66
2023/07/05 06:27:51;;;;;;;4.53;3.10;;;;;;;;;;5099334;28;20105;-63
2023/07/05 06:30:17;;;;;;;8.20;3.80;;;;;;;;;;5095153;28;20020;-64
2023/07/05 06:32:43;;;;;;;4.80;3.20;;;;;;;;;;5095427;28;20116;-64
2023/07/05 06:35:09;;;;;;;5.13;3.60;;;;;;;;;;5094896;28;20032;-64
2023/07/05 06:37:35;;;;;;;7.10;3.80;;;;;;;;;;5095078;28;20036;-65
2023/07/05 06:40:02;;;;;;;14.20;4.18;;;;;;;;;;5095758;28;20031;-65
2023/07/05 06:42:28;;;;;;;5.78;3.72;;;;;;;;;;5094865;28;20024;-64
2023/07/05 06:44:54;;;;;;;5.78;3.72;;;;;;;;;;5096040;28;20028;-64
2023/07/05 06:47:20;;;;;;;4.57;3.47;;;;;;;;;;5095734;28;20024;-64
2023/07/05 06:49:46;;;;;;;4.75;3.47;;;;;;;;;;5094154;28;20082;-65
2023/07/05 06:52:12;;;;;;;6.82;3.67;;;;;;;;;;5092051;28;20051;-64
2023/07/05 06:54:38;;;;;;;6.72;3.05;;;;;;;;;;5100817;28;20525;-64
2023/07/05 06:57:04;;;;;;;7.78;3.20;;;;;;;;;;5095807;28;20434;-65
2023/07/05 06:59:30;;;;;;;4.43;3.20;;;;;;;;;;5094359;28;20031;-65
2023/07/05 07:01:56;;;;;;;14.15;4.00;;;;;;;;;;5094761;28;20024;-65
2023/07/05 07:04:22;;;;;;;3.88;2.88;;;;;;;;;;5095593;28;20157;-63
2023/07/05 07:06:48;;;;;;;7.97;3.15;;;;;;;;;;5094820;28;20027;-63
2023/07/05 07:09:14;;;;;;;6.80;3.33;;;;;;;;;;5095616;28;20050;-64
2023/07/05 07:11:40;;;;;;;9.45;3.13;;;;;;;;;;5093091;28;20397;-63
2023/07/05 07:14:06;;;;;;;8.10;3.30;;;;;;;;;;5095150;28;20409;-63
2023/07/05 07:16:32;;;;;;;6.32;3.28;;;;;;;;;;5095161;28;20035;-63
2023/07/05 07:18:59;;;;;;;6.93;3.17;;;;;;;;;;5095712;28;20123;-63
2023/07/05 07:21:25;;;;;;;8.40;3.45;;;;;;;;;;5091667;28;20024;-62
2023/07/05 07:23:51;;;;;;;7.22;3.17;;;;;;;;;;5093369;28;20030;-63
2023/07/05 07:26:19;;;;;;;6.35;3.30;;;;;;;;;;5094566;28;20103;-62
2023/07/05 07:28:48;;;;;;;5.18;3.15;;;;;;;;;;5092580;28;20032;-64
2023/07/05 07:31:15;;;;;;;8.13;3.60;;;;;;;;;;5094857;28;20036;-64
2023/07/05 07:33:42;;;;;;;5.85;2.97;;;;;;;;;;5093882;28;20489;-65
2023/07/05 07:36:09;;;;;;;6.18;3.13;;;;;;;;;;5093693;28;20114;-63
2023/07/05 07:38:35;;;;;;;5.63;3.15;;;;;;;;;;5094427;28;20398;-64
2023/07/05 07:41:01;;;;;;;6.18;3.53;;;;;;;;;;5094458;28;20024;-63
2023/07/05 07:43:27;;;;;;;5.70;3.63;;;;;;;;;;5094508;28;20088;-64
2023/07/05 07:45:53;;;;;;;4.68;3.30;;;;;;;;;;5094813;28;20393;-62
2023/07/05 07:48:19;;;;;;;6.82;3.40;;;;;;;;;;5093925;28;20039;-62
2023/07/05 07:50:49;;;;;;;5.43;3.28;;;;;;;;;;5093007;28;20032;-62
2023/07/05 07:53:15;;;;;;;5.30;3.20;;;;;;;;;;5093653;28;20119;-63
2023/07/05 07:55:41;;;;;;;5.53;3.00;;;;;;;;;;5094718;28;20116;-61
2023/07/05 07:58:08;;;;;;;4.80;3.08;;;;;;;;;;5097377;28;20032;-61
2023/07/05 08:00:34;;;;;;;5.35;3.03;;;;;;;;;;5096969;28;20020;-61
2023/07/05 08:03:00;;;;;;;6.05;2.97;;;;;;;;;;5092442;28;20481;-62
2023/07/05 08:05:28;;;;;;;7.13;2.83;;;;;;;;;;5092474;28;20078;-62
2023/07/05 08:07:54;;;;;;;8.10;3.20;;;;;;;;;;5093627;28;20115;-64
2023/07/05 08:10:20;;;;;;;7.18;3.25;;;;;;;;;;5093999;28;20028;-63
2023/07/05 08:12:46;;;;;;;6.55;3.40;;;;;;;;;;5091483;28;20028;-64
2023/07/05 08:15:12;;;;;;;4.03;2.72;;;;;;;;;;5093360;28;20040;-65
2023/07/05 08:17:39;;;;;;;7.28;2.90;;;;;;;;;;5091403;28;20176;-65
2023/07/05 08:20:05;;;;;;;5.68;2.50;;;;;;;;;;5093359;28;20020;-64
2023/07/05 08:22:31;;;;;;;6.18;2.65;;;;;;;;;;5092465;28;20039;-65
2023/07/05 08:24:57;;;;;;;7.07;2.42;;;;;;;;;;5096864;27;20066;-64
2023/07/05 08:27:23;;;;;;;6.55;2.40;;;;;;;;;;5093002;28;20485;-64
2023/07/05 08:29:49;;;;;;;5.43;2.85;;;;;;;;;;5093633;28;20065;-64
2023/07/05 08:32:15;;;;;;;6.65;2.63;;;;;;;;;;5092820;28;20036;-63
2023/07/05 08:34:41;;;;;;;4.60;2.22;;;;;;;;;;5092820;28;20024;-62
2023/07/05 08:37:07;;;;;;;5.20;2.25;;;;;;;;;;5092178;28;20416;-63
2023/07/05 08:39:33;;;;;;;6.80;2.90;;;;;;;;;;5093076;28;20042;-63
2023/07/05 08:42:07;;;;;;;5.78;2.83;;;;;;;;;;5093427;28;20043;-64
2023/07/05 08:44:53;;;;;;;4.53;2.40;;;;;;;;;;5096316;28;20089;-64
2023/07/05 08:47:22;;;;;;;5.88;2.50;;;;;;;;;;5084389;28;20024;-64
2023/07/05 08:49:51;;;;;;;10.00;2.75;;;;;;;;;;5088777;28;20093;-63
2023/07/05 08:52:27;;;;;;;6.60;2.30;;;;;;;;;;5090948;28;20055;-64
2023/07/05 08:54:55;;;;;;;7.95;2.35;;;;;;;;;;5073335;28;20039;-63
2023/07/05 08:57:25;;;;;;;7.35;2.55;;;;;;;;;;5073068;28;20060;-64
2023/07/05 08:59:53;;;;;;;5.93;2.45;;;;;;;;;;5084513;28;20096;-63
2023/07/05 09:02:20;;;;;;;3.70;2.20;;;;;;;;;;5093611;28;20413;-63
2023/07/05 09:04:48;;;;;;;3.22;2.00;;;;;;;;;;5091959;28;20063;-63
2023/07/05 09:07:23;;;;;;;6.00;2.40;;;;;;;;;;5091492;28;20378;-63
2023/07/05 09:10:09;;;;;;;5.00;2.65;;;;;;;;;;5092857;28;20024;-62
2023/07/05 09:12:39;;;;;;;6.22;2.60;;;;;;;;;;5084433;28;20047;-63
2023/07/05 09:15:13;;;;;;;6.10;2.42;;;;;;;;;;5091872;28;20027;-63
2023/07/05 09:17:49;;;;;;;4.13;2.15;;;;;;;;;;5081903;28;20048;-63
2023/07/05 09:20:25;;;;;;;5.28;2.25;;;;;;;;;;5093060;28;20382;-62
2023/07/05 09:22:52;;;;;;;4.45;2.40;;;;;;;;;;5091815;28;20021;-63
2023/07/05 09:25:21;;;;;;;12.05;2.72;;;;;;;;;;5091021;28;20111;-62
2023/07/05 09:27:50;;;;;;;5.18;2.60;;;;;;;;;;5093006;28;20067;-63
2023/07/05 09:30:20;;;;;;;6.75;3.05;;;;;;;;;;5091734;28;20028;-62
2023/07/05 09:32:50;;;;;;;3.92;2.75;;;;;;;;;;5092872;28;20082;-65
2023/07/05 09:35:18;;;;;;;5.75;2.40;;;;;;;;;;5095335;28;20028;-63
2023/07/05 09:37:54;;;;;;;4.55;2.42;;;;;;;;;;5096854;28;20032;-62
2023/07/05 09:40:22;;;;;;;6.72;2.50;;;;;;;;;;5096921;28;20393;-65
2023/07/05 09:43:08;;;;;;;6.63;2.90;;;;;;;;;;5099411;28;20089;-64
2023/07/05 09:45:34;;;;;;;6.57;2.20;;;;;;;;;;5096875;28;20016;-63
2023/07/05 09:48:02;;;;;;;5.20;2.03;;;;;;;;;;5096951;28;20029;-63
2023/07/05 09:50:29;;;;;;;4.63;2.50;;;;;;;;;;5093455;28;20039;-63
2023/07/05 09:53:03;;;;;;;5.65;2.10;;;;;;;;;;5095717;28;20035;-63
2023/07/05 09:55:29;;;;;;;5.40;2.30;;;;;;;;;;5094798;28;20477;-64
2023/07/05 09:57:55;;;;;;;4.28;1.80;;;;;;;;;;5095889;28;20489;-62
2023/07/05 10:00:24;;;;;;;8.63;2.10;;;;;;;;;;5095334;28;20020;-63
2023/07/05 10:02:51;;;;;;;5.20;2.22;;;;;;;;;;5096725;28;20355;-63
2023/07/05 10:05:24;;;;;;;6.38;2.05;;;;;;;;;;5098863;28;20432;-62
2023/07/05 10:07:55;;;;;;;4.77;2.00;;;;;;;;;;5096124;28;20039;-63
2023/07/05 10:10:24;;;;;;;9.68;2.55;;;;;;;;;;5092556;28;20609;-63
2023/07/05 10:12:58;;;;;;;6.75;2.08;;;;;;;;;;5096229;28;20043;-62
2023/07/05 10:15:25;;;;;;;8.63;2.40;;;;;;;;;;5094087;28;20051;-64
2023/07/05 10:17:53;;;;;;;12.05;2.42;;;;;;;;;;5096064;28;20102;-65
2023/07/05 10:20:23;;;;;;;10.30;2.55;;;;;;;;;;5095601;28;20525;-65
2023/07/05 10:22:58;;;;;;;4.95;2.00;;;;;;;;;;5096900;28;20094;-64
2023/07/05 10:25:24;;;;;;;7.45;2.28;;;;;;;;;;5094525;28;20111;-65
2023/07/05 10:27:51;;;;;;;9.25;2.45;;;;;;;;;;5099355;28;20054;-63
2023/07/05 10:30:18;;;;;;;6.15;2.17;;;;;;;;;;5094217;28;20362;-64
2023/07/05 10:32:45;;;;;;;7.28;2.35;;;;;;;;;;5095563;28;20038;-64
2023/07/05 10:35:28;;;;;;;12.20;2.33;;;;;;;;;;5094052;28;20482;-64
2023/07/05 10:37:55;;;;;;;12.10;2.50;;;;;;;;;;5093803;28;20086;-64
2023/07/05 10:40:22;;;;;;;5.68;2.50;;;;;;;;;;5095648;28;20266;-64
2023/07/05 10:42:50;;;;;;;6.20;1.92;;;;;;;;;;5094953;28;20039;-64
2023/07/05 10:45:17;;;;;;;11.00;2.63;;;;;;;;;;5095439;28;20024;-63
2023/07/05 10:47:45;;;;;;;5.07;2.30;;;;;;;;;;5095536;28;20036;-63
2023/07/05 10:50:13;;;;;;;7.85;2.30;;;;;;;;;;5094745;28;20031;-70
2023/07/05 10:52:44;;;;;;;14.48;2.85;;;;;;;;;;5096484;28;20027;-70
2023/07/05 10:55:14;;;;;;;11.35;3.13;;;;;;;;;;5092324;28;20389;-68
2023/07/05 10:57:43;;;;;;;8.68;2.40;;;;;;;;;;5095863;28;20063;-66
2023/07/05 11:00:29;;;;;;;9.85;2.50;;;;;;;;;;5102669;28;20108;-67
2023/07/05 11:02:58;;;;;;;10.63;2.33;;;;;;;;;;5095696;28;20439;-64
2023/07/05 11:05:29;;;;;;;11.93;2.30;;;;;;;;;;5094276;28;20012;-65
2023/07/05 11:07:56;;;;;;;6.10;2.50;;;;;;;;;;5094048;28;20170;-65
2023/07/05 11:10:22;;;;;;;11.15;2.40;;;;;;;;;;5093198;28;20039;-65
2023/07/05 11:12:48;;;;;;;13.25;2.53;;;;;;;;;;5094546;28;20118;-65
2023/07/05 11:15:16;;;;;;;12.48;2.50;;;;;;;;;;5094474;28;20114;-65
2023/07/05 11:17:43;;;;;;;10.43;2.38;;;;;;;;;;5090110;28;20143;-65
2023/07/05 11:20:29;;;;;;;11.07;3.05;;;;;;;;;;5093909;28;20028;-64
2023/07/05 11:22:55;;;;;;;16.77;3.20;;;;;;;;;;5093518;28;20019;-64
2023/07/05 11:25:40;;;;;;;9.90;2.60;;;;;;;;;;5094288;28;20450;-65
2023/07/05 11:28:26;;;;;;;12.02;3.00;;;;;;;;;;5090392;28;20473;-65
2023/07/05 11:30:54;;;;;;;9.63;2.55;;;;;;;;;;5095229;28;20039;-65
2023/07/05 11:33:22;;;;;;;8.18;2.20;;;;;;;;;;5095921;28;20047;-64
2023/07/05 11:35:50;;;;;;;11.57;2.22;;;;;;;;;;5093496;28;20362;-65
2023/07/05 11:38:36;;;;;;;7.15;2.15;;;;;;;;;;5093120;28;20385;-64
2023/07/05 11:41:04;;;;;;;9.85;2.58;;;19.80;99.90;;;;;;5092168;28;20073;-64
2023/07/05 11:43:41;;;;;;;11.20;2.22;;;19.90;99.90;;;;;;5093774;28;20032;-64
2023/07/05 11:46:48;;;;;;;8.80;2.42;;;20.20;99.90;;;;;;5092537;28;20104;-64
2023/07/05 11:52:06;;;;;;;8.30;2.30;;;20.70;99.90;;;;;;5066732;28;20420;-65
2023/07/05 11:54:44;;;;;;;13.20;2.63;;;21.10;99.90;;;;;;5070555;28;20029;-62
2023/07/05 11:57:12;;;;;;;9.10;2.45;;;;;;;;;;5069599;28;20086;-62
2023/07/05 11:59:40;;;;;;;9.00;2.53;;;;;;;;;;5065494;28;20032;-67
2023/07/05 12:02:11;;;;;;;8.43;2.15;;;;;;;;;;5067481;28;20032;-64
2023/07/05 12:04:38;;;;;;;11.50;2.70;;;;;;;;;;5051288;28;20384;-63
2023/07/05 12:07:06;;;;;;;9.00;2.17;;;;;;;;;;5050627;28;20119;-63
2023/07/05 12:09:36;;;;;;;8.88;2.38;;;20.60;99.90;;;;;;5062681;28;20422;-63
2023/07/05 12:12:03;;;;;;;14.30;2.42;;;;;;;;;;5050055;28;20030;-62
2023/07/05 12:14:29;;;;;;;7.00;2.10;;;20.00;99.90;;;;;;5056431;28;20033;-62
2023/07/05 12:16:58;;;;;;;7.07;2.13;;;;;;;;;;5067506;28;20039;-63
2023/07/05 12:19:30;;;;;;;19.48;2.67;;;20.80;1.00;;;;;;5082117;28;20029;-63
2023/07/05 12:22:00;;;;;;;11.77;2.50;;;20.60;99.90;;;;;;5052393;28;20471;-63
2023/07/05 12:24:26;;;;;;;11.40;2.47;;;20.40;1.00;;;;;;5065737;28;20116;-63
2023/07/05 12:26:56;;;;;;;10.57;2.58;;;20.30;9.70;;;;;;5067003;28;20439;-63
2023/07/05 12:29:28;;;;;;;13.85;2.67;;;20.20;21.90;;;;;;5049853;28;20033;-62
2023/07/05 12:32:03;;;;;;;8.02;2.28;;;20.60;29.10;;;;;;5073414;28;20086;-63
2023/07/05 12:34:29;;;;;;;8.80;2.13;;;20.60;1.00;;;;;;5066738;28;20027;-63
2023/07/05 12:36:54;;;;;;;10.93;2.20;;;20.30;1.00;;;;;;5032109;28;20108;-63
2023/07/05 12:39:20;;;;;;;10.80;2.13;;;20.10;1.00;;;;;;5048522;28;20033;-64
2023/07/05 12:42:09;;;;;;;6.63;2.17;;;20.20;1.00;;;;;;5043051;28;20454;-63
2023/07/05 12:44:35;;;;;;;7.20;2.28;;;20.10;1.00;;;;;;5029410;28;20040;-62
2023/07/05 12:47:11;;;;;;;6.45;2.40;;;20.00;1.00;;;;;;5049141;28;20033;-62
2023/07/05 12:49:37;;;;;;;12.82;2.60;;;20.40;99.90;;;;;;5050527;28;20057;-63
2023/07/05 12:52:02;;;;;;;12.77;2.17;;;20.40;1.00;;;;;;5049067;28;20060;-62
2023/07/05 12:54:28;;;;;;;6.95;2.28;;;20.50;1.00;;;;;;5030826;28;20030;-61
2023/07/05 12:56:56;;;;;;;10.88;2.40;;;20.60;99.90;;;;;;5044966;28;20135;-61
2023/07/05 12:59:32;;;;;;;8.98;2.63;;;20.30;99.90;;;;;;5045381;28;20021;-62
2023/07/05 13:02:03;;;;;;;7.85;1.92;;;;;;;;;;5042281;28;20403;-61
2023/07/05 13:04:30;;;;;;;6.28;1.90;;;20.90;1.00;;;;;;5035439;28;20026;-62
2023/07/05 13:06:57;;;;;;;9.27;2.70;;;21.30;4.30;;;;;;5035721;28;20033;-61
2023/07/05 13:09:28;;;;;;;6.47;2.00;;;21.90;9.60;;;;;;5035528;28;20030;-61
2023/07/05 13:11:56;;;;;;;7.45;2.03;;;21.30;1.00;;;;;;5036062;28;20051;-63
2023/07/05 13:14:25;;;;;;;7.60;2.30;;;20.80;1.00;;;;;;5034488;28;20418;-66
2023/07/05 13:17:10;;;;;;;9.82;2.42;;;20.40;38.60;;;;;;5035156;28;20026;-62
2023/07/05 13:19:46;;;;;;;12.20;2.50;;;20.40;41.40;;;;;;5020425;28;20083;-61
2023/07/05 13:22:29;;;;;;;5.07;1.92;;;20.60;33.30;;;;;;5050050;28;20026;-63
2023/07/05 13:24:55;;;;;;;;;;;21.10;17.70;;;;;;5037390;28;20072;-62
2023/07/05 13:27:26;;;;;;;12.50;2.28;;;21.30;10.10;;;;;;5025754;28;19967;-62
2023/07/05 13:29:53;;;;;;;8.05;2.00;;;;;;;;;;5038303;28;20041;-62
2023/07/05 13:32:21;;;;;;;10.20;1.67;;;;;;;;;;5034568;28;20120;-61
2023/07/05 13:34:47;;;;;;;7.28;2.35;;;;;;;;;;5027395;28;20029;-65
2023/07/05 13:37:15;;;;;;;12.60;1.95;;;21.00;1.00;;;;;;5021642;28;20017;-61
2023/07/05 13:39:41;;;;;;;7.85;2.05;;;;;;;;;;5029393;28;20407;-60
2023/07/05 13:42:11;;;;;;;8.63;2.30;;;;;;;;;;5034284;28;20525;-61
2023/07/05 13:44:37;;;;;;;8.13;1.98;;;20.50;99.90;;;;;;5023922;28;20113;-61
2023/07/05 13:47:03;;;;;;;6.68;1.80;;;20.40;99.90;;;;;;5025693;28;20117;-60
2023/07/05 13:49:28;;;;;;;8.55;1.92;;;20.20;99.90;;;;;;5023707;28;20179;-63
2023/07/05 13:51:56;;;;;;;9.07;2.25;;;20.00;99.90;;;;;;5032061;28;20092;-62
2023/07/05 13:54:23;;;;;;;8.25;2.17;;;20.00;99.90;;;;;;5046796;28;20388;-61
2023/07/05 13:56:48;;;;;;;7.43;1.92;;;20.00;99.90;;;;;;5036717;28;20057;-63
2023/07/05 13:59:18;;;;;;;8.70;2.10;;;20.10;99.90;;;;;;5034718;28;20068;-62
2023/07/05 14:01:45;;;;;;;11.88;2.35;;;;;;;;;;5023435;28;20088;-62
2023/07/05 14:04:11;;;;;;;7.60;2.22;;;21.30;1.00;;;;;;5017872;28;20116;-61
2023/07/05 14:06:37;;;;;;;6.05;2.20;;;21.20;1.00;;;;;;5032322;28;20037;-64
2023/07/05 14:09:03;;;;;;;9.75;2.10;;;20.70;1.00;;;;;;5021905;28;20084;-63
2023/07/05 14:11:33;;;;;;;5.70;1.88;;;20.30;1.00;;;;;;5023385;28;20056;-62
2023/07/05 14:14:00;;;;;;;9.93;2.25;;;20.30;1.00;;;;;;5030706;28;20480;-63
2023/07/05 14:16:26;;;;;;;8.45;2.13;;;20.10;1.00;;;;;;5039670;28;20072;-62
2023/07/05 14:18:52;;;;;;;10.88;2.28;;;20.30;99.90;;;;;;5042185;28;20099;-62
2023/07/05 14:21:26;;;;;;;11.00;2.35;;;20.30;99.90;;;;;;5029634;28;20029;-61
2023/07/05 14:23:51;;;;;;;11.00;2.78;;;20.10;99.90;;;;;;5022683;28;20041;-62